Main page
METAR-TAF:

METAR-TAF

Airports :

Las Cruces International Airport

Las Cruces, New Mexico, United States

latitude: 32-17-22N, longitude: 106-55-19W, elevation: 4454 ft

Current weather observation

The report was made 26 minutes ago, at 22:15 UTC
Wind 24 mph from the West/Southwest with gusts up to 31 mph
Temperature 93°F
Humidity 7%
Pressure 29.90 in. Hg
Visibility: 10 miles
Clear sky

METAR: KLRU 202215Z AUTO 25021G27KT 10SM CLR 34/M06 A2990 RMK AO2 T03411062

Time: 16:41 (22:41 UTC)

Forecast

The report was made 5 hours and 0 minutes ago, at 17:41 UTC
Forecast valid from 20 at 18 UTC to 21 at 18 UTC
Wind 23 mph from the West with gusts up to 35 mph
Visibility: 6 miles
Scattered clouds at a height of 25000 ft
From 21 at 0600 UTC
Wind 13 mph from the West/Northwest
Visibility: 6 miles
Scattered clouds at a height of 25000 ft

TAF: KLRU 201741Z 2018/2118 26020G30KT P6SM SCT250 FM210600 29011KT P6SM SCT250

Weather observations and forecasts of more than 4000 airports (METAR and TAF reports).

The available stations are represented by yellow and red dots on the map.

Hover mouse over dot to see the name of the station.

Then click to see weather observations and forecasts.

To change the map : click on the green buttons with a black cross to zoom in, on the green button with a dash to zoom out, or on the green arrows for adjacent maps.


METAR-TAF: